Jacky L O'neal — WDG3892 — position and weather

sailwx.info

Track history (hours):
 
Tides and Currents Weather Stations Pressure Air Temp Water Temp Dewpoint Dewpoint Depression Visibility Wind Speed Wind Dir Waves Ship Positions

Jacky L O'neal

Owner: American Commercial Lines LLC, Jeffersonville, IN. More information available from US FCC via Universal Licensing System and Coast Guard Vessel Documentation Center.

Last reported at 2017-Jan-20 07:05 UTC. Time now 2017-Jan-22 12:06 UTC.
Position N 32°54' W 091°04'.

Length 55 m; draft 2.9 m.

Type: Tow > 200 m length. MMSI: 367530760.

Date/timePositionNaut miles runAvg speedWind from/ knotsBaromVisibWave heightAir tempDewpointWater temp
2017-Jan-20 07:05N 32°54' W 091°04'10 2.2
2017-Jan-20 02:23N 32°44' W 091°03'3 3.5
2017-Jan-20 01:30N 32°41' W 091°05'4 3.8
2017-Jan-20 00:33N 32°39' W 091°09'3 3.2
2017-Jan-19 23:33N 32°36' W 091°09'4 3.8
2017-Jan-19 22:33N 32°33' W 091°06'4 4.1
2017-Jan-19 21:33N 32°29' W 091°07'4 4.0
2017-Jan-19 20:33N 32°26' W 091°03'4 3.8
2017-Jan-19 19:33N 32°25' W 090°60'3 2.9
2017-Jan-19 18:32N 32°22' W 091°00'4 3.6
2017-Jan-19 17:33N 32°21' W 090°56'3 2.8
2017-Jan-19 16:33N 32°18' W 090°55'3 2.6
2017-Jan-19 15:33N 32°16' W 090°57'3 3.3
2017-Jan-19 14:33N 32°14' W 090°59'4 4.1
2017-Jan-19 13:33N 32°10' W 091°00'3 3.3
2017-Jan-19 12:33N 32°07' W 091°03'3 3.0
2017-Jan-19 11:33N 32°07' W 091°06'3 3.2
2017-Jan-19 10:29N 32°04' W 091°04'4 4.1
2017-Jan-19 09:33N 32°01' W 091°05'  
2017-Jan-14 19:22N 31°59' W 091°09'6 7.5
2017-Jan-14 18:33N 32°03' W 091°03'5 5.5
2017-Jan-14 17:33N 32°08' W 091°06'1 1.2
2017-Jan-14 16:31N 32°08' W 091°04'0 0.0
2017-Jan-14 14:05N 32°08' W 091°04'0 0.0
2017-Jan-14 13:23N 32°08' W 091°04'0 0.0
2017-Jan-14 06:33N 32°08' W 091°04'5 4.6
2017-Jan-14 05:33N 32°11' W 091°00'8 7.9
2017-Jan-14 04:33N 32°18' W 090°56'5 4.9
2017-Jan-14 03:33N 32°21' W 090°60'24 5.9
2017-Jan-13 23:27N 32°44' W 091°08'  
Track history (hours):
 
Tides and Currents Weather Stations Pressure Air Temp Water Temp Dewpoint Dewpoint Depression Visibility Wind Speed Wind Dir Waves Ship Positions

Jacky L O'neal

Owner: American Commercial Lines LLC, Jeffersonville, IN. More information available from US FCC via Universal Licensing System and Coast Guard Vessel Documentation Center.

Last reported at 2017-Jan-20 07:05 UTC. Time now 2017-Jan-22 12:06 UTC.
Position N 32°54' W 091°04'.

Length 55 m; draft 2.9 m.

Type: Tow > 200 m length. MMSI: 367530760.

Date/timePositionNaut miles runAvg speedWind from/ knotsBaromVisibWave heightAir tempDewpointWater temp
2017-Jan-20 07:05N 32°54' W 091°04'10 2.2
2017-Jan-20 02:23N 32°44' W 091°03'3 3.5
2017-Jan-20 01:30N 32°41' W 091°05'4 3.8
2017-Jan-20 00:33N 32°39' W 091°09'3 3.2
2017-Jan-19 23:33N 32°36' W 091°09'4 3.8
2017-Jan-19 22:33N 32°33' W 091°06'4 4.1
2017-Jan-19 21:33N 32°29' W 091°07'4 4.0
2017-Jan-19 20:33N 32°26' W 091°03'4 3.8
2017-Jan-19 19:33N 32°25' W 090°60'3 2.9
2017-Jan-19 18:32N 32°22' W 091°00'4 3.6
2017-Jan-19 17:33N 32°21' W 090°56'3 2.8
2017-Jan-19 16:33N 32°18' W 090°55'3 2.6
2017-Jan-19 15:33N 32°16' W 090°57'3 3.3
2017-Jan-19 14:33N 32°14' W 090°59'4 4.1
2017-Jan-19 13:33N 32°10' W 091°00'3 3.3
2017-Jan-19 12:33N 32°07' W 091°03'3 3.0
2017-Jan-19 11:33N 32°07' W 091°06'3 3.2
2017-Jan-19 10:29N 32°04' W 091°04'4 4.1
2017-Jan-19 09:33N 32°01' W 091°05'  
2017-Jan-14 19:22N 31°59' W 091°09'6 7.5
2017-Jan-14 18:33N 32°03' W 091°03'5 5.5
2017-Jan-14 17:33N 32°08' W 091°06'1 1.2
2017-Jan-14 16:31N 32°08' W 091°04'0 0.0
2017-Jan-14 14:05N 32°08' W 091°04'0 0.0
2017-Jan-14 13:23N 32°08' W 091°04'0 0.0
2017-Jan-14 06:33N 32°08' W 091°04'5 4.6
2017-Jan-14 05:33N 32°11' W 091°00'8 7.9
2017-Jan-14 04:33N 32°18' W 090°56'5 4.9
2017-Jan-14 03:33N 32°21' W 090°60'24 5.9
2017-Jan-13 23:27N 32°44' W 091°08'  

Dump ship's entire track history